createdAt,value
2023-03-24T00:00:11.174Z,97910.88
2023-03-24T00:01:14.351Z,97910.22
2023-03-24T00:02:18.662Z,97908.59
2023-03-24T00:03:21.773Z,97906.44
2023-03-24T00:04:25.553Z,97912.00
2023-03-24T00:05:30.686Z,97907.22
2023-03-24T00:06:34.945Z,97898.53
2023-03-24T00:07:41.692Z,97903.56
2023-03-24T00:08:48.199Z,97902.31
2023-03-24T00:09:51.907Z,97888.69
2023-03-24T00:10:54.747Z,97901.31
2023-03-24T00:11:58.220Z,97899.88
2023-03-24T00:13:01.237Z,97897.87
2023-03-24T00:14:04.639Z,97899.25
2023-03-24T00:15:11.205Z,97892.75
2023-03-24T00:16:17.187Z,97898.00
2023-03-24T00:17:20.487Z,97895.38
2023-03-24T00:18:26.194Z,97896.44
2023-03-24T00:19:29.383Z,97894.28
2023-03-24T00:20:33.202Z,97890.41
2023-03-24T00:21:37.663Z,97891.59
2023-03-24T00:22:50.185Z,97882.97
2023-03-24T00:23:59.112Z,97889.00
2023-03-24T00:25:04.504Z,97884.66
2023-03-24T00:26:15.580Z,97884.34
2023-03-24T00:27:18.916Z,97887.88
2023-03-24T00:28:22.743Z,97882.63
2023-03-24T00:29:25.862Z,97882.34
2023-03-24T00:30:28.927Z,97884.31
2023-03-24T00:31:32.435Z,97876.00
2023-03-24T00:32:39.082Z,97881.56
2023-03-24T00:33:44.169Z,97880.09
2023-03-24T00:34:46.919Z,97876.59
2023-03-24T00:35:49.864Z,97880.78
2023-03-24T00:36:53.371Z,97876.44
2023-03-24T00:37:56.582Z,97874.78
2023-03-24T00:38:59.555Z,97880.03
2023-03-24T00:40:02.469Z,97879.09
2023-03-24T00:41:08.031Z,97876.31
2023-03-24T00:42:10.954Z,97877.28
2023-03-24T00:43:13.772Z,97867.25
2023-03-24T00:44:20.357Z,97870.81
2023-03-24T00:45:25.610Z,97868.03
2023-03-24T00:46:28.970Z,97869.13
2023-03-24T00:47:37.278Z,97859.25
2023-03-24T00:48:42.411Z,97866.34
2023-03-24T00:49:45.415Z,97861.41
2023-03-24T00:50:49.437Z,97856.63
2023-03-24T00:51:52.377Z,97852.75
2023-03-24T00:52:55.905Z,97855.41
2023-03-24T00:53:59.950Z,97845.94
2023-03-24T00:55:05.721Z,97847.19
2023-03-24T00:56:09.404Z,97842.88
2023-03-24T00:57:13.244Z,97848.44
2023-03-24T00:58:19.778Z,97846.75
2023-03-24T00:59:23.808Z,97845.81
2023-03-24T01:00:27.348Z,97844.75
2023-03-24T01:01:36.814Z,97841.50
2023-03-24T01:02:39.860Z,97836.87
2023-03-24T01:03:48.686Z,97841.94
2023-03-24T01:04:56.683Z,97839.94
2023-03-24T01:06:04.532Z,97837.44
2023-03-24T01:07:11.101Z,97840.25
2023-03-24T01:08:15.939Z,97837.16
2023-03-24T01:09:21.984Z,97844.56
2023-03-24T01:10:26.600Z,97836.06
2023-03-24T01:11:38.001Z,97835.00
2023-03-24T01:12:41.259Z,97838.06
2023-03-24T01:13:44.144Z,97827.56
2023-03-24T01:14:46.875Z,97823.56
2023-03-24T01:15:50.041Z,97820.78
2023-03-24T01:16:53.386Z,97815.06
2023-03-24T01:17:57.890Z,97816.31
2023-03-24T01:19:01.065Z,97812.00
2023-03-24T01:20:11.976Z,97812.28
2023-03-24T01:21:14.830Z,97815.53
2023-03-24T01:22:18.268Z,97816.28
2023-03-24T01:23:23.866Z,97804.69
2023-03-24T01:24:26.703Z,97810.12
2023-03-24T01:25:30.755Z,97816.00
2023-03-24T01:26:34.559Z,97808.69
2023-03-24T01:27:37.852Z,97804.06
2023-03-24T01:28:43.995Z,97800.81
2023-03-24T01:29:46.961Z,97806.69
2023-03-24T01:30:50.432Z,97799.59
2023-03-24T01:31:53.323Z,97802.34
2023-03-24T01:32:57.420Z,97798.34
2023-03-24T01:34:00.328Z,97801.28
2023-03-24T01:35:03.257Z,97794.91
2023-03-24T01:36:07.536Z,97791.84
2023-03-24T01:37:10.594Z,97800.50
2023-03-24T01:38:14.988Z,97797.13
2023-03-24T01:39:17.953Z,97796.03
2023-03-24T01:40:32.306Z,97797.87
2023-03-24T01:41:41.065Z,97793.25
2023-03-24T01:42:45.329Z,97798.34
2023-03-24T01:43:48.231Z,97791.72
2023-03-24T01:44:54.630Z,97787.97
2023-03-24T01:46:17.121Z,97786.75
2023-03-24T01:47:20.096Z,97790.16
2023-03-24T01:48:25.836Z,97790.50
2023-03-24T01:49:57.962Z,97792.66
2023-03-24T01:51:13.100Z,97787.56
2023-03-24T01:52:21.244Z,97798.06
2023-03-24T01:53:24.948Z,97793.44
2023-03-24T01:54:42.186Z,97791.44
2023-03-24T01:55:48.028Z,97796.06
2023-03-24T01:57:16.697Z,97788.16
2023-03-24T01:58:19.853Z,97792.81
2023-03-24T01:59:29.190Z,97795.63
2023-03-24T02:00:32.983Z,97786.50
2023-03-24T02:01:36.265Z,97790.66
2023-03-24T02:02:43.172Z,97800.41
2023-03-24T02:03:46.976Z,97785.75
2023-03-24T02:05:01.950Z,97789.41
2023-03-24T02:06:05.687Z,97785.75
2023-03-24T02:07:24.282Z,97783.41
2023-03-24T02:08:36.176Z,97783.53
2023-03-24T02:09:39.013Z,97789.41
2023-03-24T02:10:43.600Z,97783.09
2023-03-24T02:11:46.705Z,97795.28
2023-03-24T02:12:49.799Z,97792.50
2023-03-24T02:13:53.208Z,97785.25
2023-03-24T02:14:56.382Z,97792.38
2023-03-24T02:16:30.787Z,97785.75
2023-03-24T02:17:42.617Z,97790.66
2023-03-24T02:19:15.750Z,97790.37
2023-03-24T02:20:50.982Z,97785.72
2023-03-24T02:22:00.119Z,97779.50
2023-03-24T02:23:15.042Z,97787.09
2023-03-24T02:24:36.641Z,97790.63
2023-03-24T02:25:52.416Z,97795.41
2023-03-24T02:27:07.342Z,97790.47
2023-03-24T02:28:43.514Z,97790.16
2023-03-24T02:29:52.359Z,97782.87
2023-03-24T02:31:44.126Z,97787.97
2023-03-24T02:33:15.731Z,97792.56
2023-03-24T02:34:50.298Z,97787.31
2023-03-24T02:36:05.232Z,97793.72
2023-03-24T02:37:27.755Z,97793.19
2023-03-24T02:39:16.543Z,97789.75
2023-03-24T02:40:51.470Z,97781.31
2023-03-24T02:42:19.686Z,97782.81
2023-03-24T02:43:40.789Z,97785.72
2023-03-24T02:45:04.883Z,97781.63
2023-03-24T02:46:29.879Z,97776.09
2023-03-24T02:48:01.376Z,97777.63
2023-03-24T02:49:09.891Z,97767.37
2023-03-24T02:50:31.863Z,97767.22
2023-03-24T02:52:09.597Z,97772.75
2023-03-24T02:53:17.332Z,97760.94
2023-03-24T02:54:29.908Z,97758.75
2023-03-24T02:55:50.680Z,97758.94
2023-03-24T02:56:53.614Z,97755.19
2023-03-24T02:58:01.972Z,97754.75
2023-03-24T02:59:14.252Z,97755.53
2023-03-24T03:00:31.122Z,97751.22
2023-03-24T03:01:41.424Z,97753.53
2023-03-24T03:02:54.224Z,97747.84
2023-03-24T03:04:03.402Z,97751.69
2023-03-24T03:05:23.076Z,97750.63
2023-03-24T03:06:34.234Z,97745.37
2023-03-24T03:07:37.771Z,97746.13
2023-03-24T03:08:41.898Z,97734.72
2023-03-24T03:09:58.143Z,97737.47
2023-03-24T03:11:04.199Z,97729.91
2023-03-24T03:12:10.363Z,97734.06
2023-03-24T03:13:19.934Z,97730.19
2023-03-24T03:14:38.648Z,97736.38
2023-03-24T03:15:48.704Z,97744.87
2023-03-24T03:17:01.171Z,97744.41
2023-03-24T03:18:19.472Z,97745.78
2023-03-24T03:19:33.572Z,97753.06
2023-03-24T03:20:51.082Z,97745.44
2023-03-24T03:21:55.110Z,97741.25
2023-03-24T03:23:05.891Z,97747.41
2023-03-24T03:24:11.402Z,97739.38
2023-03-24T03:25:17.568Z,97739.81
2023-03-24T03:26:24.538Z,97741.00
2023-03-24T03:27:33.528Z,97742.19
2023-03-24T03:28:40.171Z,97738.22
2023-03-24T03:29:48.510Z,97744.94
2023-03-24T03:30:57.339Z,97743.69
2023-03-24T03:32:08.049Z,97746.19
2023-03-24T03:33:24.901Z,97742.41
2023-03-24T03:34:56.029Z,97747.94
2023-03-24T03:36:07.417Z,97745.50
2023-03-24T03:37:25.970Z,97748.22
2023-03-24T03:39:00.054Z,97749.53
2023-03-24T03:40:12.052Z,97750.38
2023-03-24T03:41:18.471Z,97738.66
2023-03-24T03:42:21.986Z,97742.53
2023-03-24T03:43:27.046Z,97747.22
2023-03-24T03:44:31.456Z,97736.28
2023-03-24T03:45:35.487Z,97740.25
2023-03-24T03:46:39.222Z,97734.53
2023-03-24T03:47:42.312Z,97732.69
2023-03-24T03:48:46.156Z,97732.06
2023-03-24T03:49:50.184Z,97737.75
2023-03-24T03:51:06.316Z,97738.66
2023-03-24T03:52:16.739Z,97736.91
2023-03-24T03:53:23.250Z,97737.16
2023-03-24T03:54:30.042Z,97734.72
2023-03-24T03:55:34.252Z,97735.72
2023-03-24T03:56:38.474Z,97731.22
2023-03-24T03:57:41.678Z,97734.66
2023-03-24T03:58:47.225Z,97736.31
2023-03-24T03:59:50.098Z,97740.28
2023-03-24T04:00:56.011Z,97733.62
2023-03-24T04:01:59.437Z,97736.31
2023-03-24T04:03:08.203Z,97729.53
2023-03-24T04:04:20.418Z,97727.47
2023-03-24T04:05:52.685Z,97732.13
2023-03-24T04:07:09.737Z,97724.53
2023-03-24T04:08:25.610Z,97732.31
2023-03-24T04:10:04.062Z,97728.28
2023-03-24T04:11:18.976Z,97723.88
2023-03-24T04:12:50.090Z,97721.34
2023-03-24T04:14:08.269Z,97729.00
2023-03-24T04:15:25.793Z,97734.16
2023-03-24T04:17:08.316Z,97716.72
2023-03-24T04:18:46.682Z,97734.12
2023-03-24T04:20:09.197Z,97727.56
2023-03-24T04:21:13.170Z,97722.66
2023-03-24T04:22:33.119Z,97728.72
2023-03-24T04:23:56.999Z,97721.53
2023-03-24T04:25:13.160Z,97729.31
2023-03-24T04:26:34.881Z,97721.41
2023-03-24T04:27:46.734Z,97722.66
2023-03-24T04:29:19.621Z,97730.37
2023-03-24T04:30:47.998Z,97734.69
2023-03-24T04:32:02.537Z,97728.69
2023-03-24T04:33:25.309Z,97741.31
2023-03-24T04:34:38.227Z,97730.69
2023-03-24T04:35:49.650Z,97732.38
2023-03-24T04:36:55.106Z,97724.16
2023-03-24T04:38:05.187Z,97726.81
2023-03-24T04:39:12.319Z,97728.16
2023-03-24T04:40:17.566Z,97727.66
2023-03-24T04:41:22.982Z,97731.28
2023-03-24T04:42:45.914Z,97731.84
2023-03-24T04:43:49.271Z,97730.97
2023-03-24T04:44:52.358Z,97726.03
2023-03-24T04:45:57.868Z,97726.34
2023-03-24T04:47:03.322Z,97720.44
2023-03-24T04:48:10.073Z,97725.75
2023-03-24T04:49:13.068Z,97731.25
2023-03-24T04:50:30.742Z,97730.72
2023-03-24T04:51:34.157Z,97725.84
2023-03-24T04:52:38.557Z,97731.94
2023-03-24T04:53:41.245Z,97733.69
2023-03-24T04:54:43.985Z,97731.56
2023-03-24T04:55:49.635Z,97723.44
2023-03-24T04:56:53.869Z,97737.84
2023-03-24T04:57:56.823Z,97729.91
2023-03-24T04:58:59.622Z,97733.03
2023-03-24T05:00:02.517Z,97732.44
2023-03-24T05:01:06.223Z,97733.69
2023-03-24T05:02:09.296Z,97740.69
2023-03-24T05:03:16.243Z,97735.44
2023-03-24T05:04:21.833Z,97742.50
2023-03-24T05:05:24.538Z,97742.88
2023-03-24T05:06:27.763Z,97747.16
2023-03-24T05:07:31.961Z,97746.94
2023-03-24T05:08:34.785Z,97745.50
2023-03-24T05:09:37.580Z,97749.75
2023-03-24T05:10:40.450Z,97744.81
2023-03-24T05:11:43.228Z,97749.28
2023-03-24T05:12:45.934Z,97748.69
2023-03-24T05:13:48.715Z,97752.16
2023-03-24T05:14:51.342Z,97744.53
2023-03-24T05:15:54.651Z,97745.59
2023-03-24T05:16:57.573Z,97744.72
2023-03-24T05:18:01.219Z,97740.56
2023-03-24T05:19:05.190Z,97746.25
2023-03-24T05:20:11.054Z,97747.94
2023-03-24T05:21:13.870Z,97747.13
2023-03-24T05:22:16.938Z,97744.16
2023-03-24T05:23:19.626Z,97748.00
2023-03-24T05:24:22.467Z,97746.38
2023-03-24T05:25:25.425Z,97749.84
2023-03-24T05:26:28.168Z,97749.06
2023-03-24T05:27:31.512Z,97744.31
2023-03-24T05:28:34.216Z,97752.81
2023-03-24T05:29:37.090Z,97747.66
2023-03-24T05:30:39.942Z,97743.09
2023-03-24T05:31:45.203Z,97750.25
2023-03-24T05:32:47.948Z,97741.44
2023-03-24T05:33:50.838Z,97745.97
2023-03-24T05:34:53.574Z,97752.94
2023-03-24T05:35:56.372Z,97745.13
2023-03-24T05:36:59.549Z,97748.41
2023-03-24T05:38:02.381Z,97749.72
2023-03-24T05:39:05.591Z,97748.88
2023-03-24T05:40:09.105Z,97756.12
2023-03-24T05:41:11.951Z,97754.78
2023-03-24T05:42:16.172Z,97760.00
2023-03-24T05:43:18.973Z,97758.16
2023-03-24T05:44:21.685Z,97761.41
2023-03-24T05:45:25.701Z,97761.00
2023-03-24T05:46:28.463Z,97760.41
2023-03-24T05:47:31.524Z,97757.19
2023-03-24T05:48:34.583Z,97768.59
2023-03-24T05:49:38.303Z,97766.16
2023-03-24T05:50:41.147Z,97763.69
2023-03-24T05:51:44.089Z,97758.31
2023-03-24T05:52:46.824Z,97768.37
2023-03-24T05:53:49.521Z,97770.59
2023-03-24T05:54:52.655Z,97759.50
2023-03-24T05:55:55.292Z,97768.63
2023-03-24T05:56:58.354Z,97761.69
2023-03-24T05:58:04.024Z,97766.63
2023-03-24T05:59:07.108Z,97765.38
2023-03-24T06:00:16.527Z,97763.41
2023-03-24T06:01:19.368Z,97760.78
2023-03-24T06:02:22.312Z,97765.63
2023-03-24T06:03:25.128Z,97766.22
2023-03-24T06:04:31.417Z,97760.81
2023-03-24T06:05:34.180Z,97764.09
2023-03-24T06:06:38.722Z,97766.84
2023-03-24T06:07:45.124Z,97760.56
2023-03-24T06:08:48.169Z,97762.72
2023-03-24T06:09:52.726Z,97768.09
2023-03-24T06:11:02.557Z,97768.09
2023-03-24T06:12:06.010Z,97765.47
2023-03-24T06:13:09.456Z,97767.37
2023-03-24T06:14:12.442Z,97764.41
2023-03-24T06:15:17.673Z,97762.13
2023-03-24T06:16:24.172Z,97764.41
2023-03-24T06:17:31.055Z,97762.72
2023-03-24T06:18:33.916Z,97758.69
2023-03-24T06:19:38.761Z,97764.09
2023-03-24T06:20:41.673Z,97762.09
2023-03-24T06:21:44.923Z,97765.47
2023-03-24T06:22:48.172Z,97763.13
2023-03-24T06:23:51.054Z,97762.22
2023-03-24T06:24:54.063Z,97763.13
2023-03-24T06:25:59.200Z,97768.69
2023-03-24T06:27:02.640Z,97767.87
2023-03-24T06:28:06.659Z,97772.53
2023-03-24T06:29:09.517Z,97769.47
2023-03-24T06:30:15.871Z,97771.47
2023-03-24T06:31:21.710Z,97768.31
2023-03-24T06:32:25.669Z,97765.41
2023-03-24T06:33:28.358Z,97765.97
2023-03-24T06:34:32.396Z,97771.56
2023-03-24T06:35:35.789Z,97763.38
2023-03-24T06:36:38.868Z,97767.66
2023-03-24T06:37:42.292Z,97764.50
2023-03-24T06:38:45.742Z,97760.81
2023-03-24T06:39:48.577Z,97763.00
2023-03-24T06:40:51.388Z,97762.84
2023-03-24T06:41:54.195Z,97757.38
2023-03-24T06:42:57.173Z,97762.78
2023-03-24T06:44:02.848Z,97767.34
2023-03-24T06:45:06.537Z,97768.13
2023-03-24T06:46:10.308Z,97756.62
2023-03-24T06:47:13.081Z,97753.81
2023-03-24T06:48:15.721Z,97756.09
2023-03-24T06:49:18.422Z,97761.28
2023-03-24T06:50:20.988Z,97764.62
2023-03-24T06:51:23.903Z,97761.81
2023-03-24T06:52:28.166Z,97758.25
2023-03-24T06:53:31.229Z,97761.38
2023-03-24T06:54:34.018Z,97758.81
2023-03-24T06:55:36.893Z,97758.13
2023-03-24T06:56:39.803Z,97756.09
2023-03-24T06:57:42.481Z,97758.63
2023-03-24T06:58:47.041Z,97750.50
2023-03-24T06:59:50.280Z,97745.72
2023-03-24T07:00:53.919Z,97752.03
2023-03-24T07:01:56.654Z,97743.03
2023-03-24T07:02:59.665Z,97752.06
2023-03-24T07:04:03.734Z,97740.03
2023-03-24T07:05:09.222Z,97747.75
2023-03-24T07:06:12.060Z,97753.22
2023-03-24T07:07:44.728Z,97746.84
2023-03-24T07:08:38.839Z,97754.00
2023-03-24T07:09:42.022Z,97744.66
2023-03-24T07:10:45.232Z,97756.19
2023-03-24T07:11:48.161Z,97745.53
2023-03-24T07:12:51.295Z,97747.75
2023-03-24T07:13:54.172Z,97741.00
2023-03-24T07:14:57.156Z,97749.22
2023-03-24T07:15:59.876Z,97737.41
2023-03-24T07:17:02.631Z,97748.53
2023-03-24T07:18:05.768Z,97745.00
2023-03-24T07:19:08.717Z,97739.75
2023-03-24T07:20:11.520Z,97740.81
2023-03-24T07:21:14.348Z,97739.84
2023-03-24T07:22:17.093Z,97736.56
2023-03-24T07:23:20.507Z,97731.09
2023-03-24T07:24:23.872Z,97736.53
2023-03-24T07:25:27.001Z,97734.97
2023-03-24T07:26:29.742Z,97732.53
2023-03-24T07:27:33.106Z,97729.25
2023-03-24T07:28:36.284Z,97728.75
2023-03-24T07:29:39.086Z,97726.12
2023-03-24T07:30:41.885Z,97725.09
2023-03-24T07:31:44.981Z,97720.44
2023-03-24T07:32:49.637Z,97723.00
2023-03-24T07:33:52.528Z,97722.75
2023-03-24T07:34:55.135Z,97720.00
2023-03-24T07:35:57.964Z,97721.06
2023-03-24T07:37:02.078Z,97724.63
2023-03-24T07:38:05.448Z,97723.59
2023-03-24T07:39:09.858Z,97728.63
2023-03-24T07:40:13.376Z,97733.78
2023-03-24T07:41:16.471Z,97731.28
2023-03-24T07:42:19.317Z,97732.28
2023-03-24T07:43:22.192Z,97729.41
2023-03-24T07:44:25.946Z,97732.63
2023-03-24T07:45:28.988Z,97736.81
2023-03-24T07:46:31.929Z,97732.34
2023-03-24T07:47:35.000Z,97735.25
2023-03-24T07:48:37.865Z,97740.41
2023-03-24T07:49:41.410Z,97754.22
2023-03-24T07:50:44.422Z,97743.47
2023-03-24T07:51:47.376Z,97742.09
2023-03-24T07:52:50.660Z,97747.03
2023-03-24T07:53:53.352Z,97751.47
2023-03-24T07:54:56.709Z,97743.53
2023-03-24T07:55:59.563Z,97749.97
2023-03-24T07:57:02.474Z,97744.22
2023-03-24T07:58:05.524Z,97747.06
2023-03-24T07:59:09.966Z,97742.28
2023-03-24T08:00:18.468Z,97747.63
2023-03-24T08:01:21.233Z,97747.31
2023-03-24T08:02:24.192Z,97741.41
2023-03-24T08:03:28.655Z,97741.16
2023-03-24T08:04:33.070Z,97739.97
2023-03-24T08:05:35.872Z,97743.31
2023-03-24T08:06:38.718Z,97743.91
2023-03-24T08:07:42.860Z,97742.47
2023-03-24T08:08:45.923Z,97733.22
2023-03-24T08:09:48.773Z,97724.53
2023-03-24T08:10:51.746Z,97729.91
2023-03-24T08:11:54.680Z,97722.47
2023-03-24T08:12:58.618Z,97717.09
2023-03-24T08:14:01.317Z,97728.88
2023-03-24T08:15:04.764Z,97710.34
2023-03-24T08:16:08.036Z,97719.53
2023-03-24T08:17:10.994Z,97713.44
2023-03-24T08:18:14.069Z,97718.03
2023-03-24T08:19:17.097Z,97719.91
2023-03-24T08:20:21.454Z,97716.50
2023-03-24T08:21:25.705Z,97720.03
2023-03-24T08:22:28.757Z,97716.53
2023-03-24T08:23:31.613Z,97717.22
2023-03-24T08:24:36.895Z,97712.25
2023-03-24T08:25:39.657Z,97715.06
2023-03-24T08:26:42.951Z,97712.06
2023-03-24T08:27:47.477Z,97707.16
2023-03-24T08:28:50.309Z,97711.50
2023-03-24T08:29:53.308Z,97717.91
2023-03-24T08:30:56.203Z,97712.47
2023-03-24T08:31:59.063Z,97716.16
2023-03-24T08:33:02.830Z,97710.19
2023-03-24T08:34:12.117Z,97709.56
2023-03-24T08:35:17.000Z,97706.25
2023-03-24T08:36:20.312Z,97703.97
2023-03-24T08:37:23.109Z,97702.81
2023-03-24T08:38:30.881Z,97699.41
2023-03-24T08:39:36.257Z,97692.94
2023-03-24T08:40:40.588Z,97697.56
2023-03-24T08:41:43.553Z,97696.97
2023-03-24T08:42:56.021Z,97696.44
2023-03-24T08:43:58.775Z,97693.59
2023-03-24T08:45:01.500Z,97683.66
2023-03-24T08:46:07.038Z,97699.03
2023-03-24T08:47:09.806Z,97698.41
2023-03-24T08:48:13.052Z,97691.28
2023-03-24T08:49:16.092Z,97683.94
2023-03-24T08:50:21.780Z,97695.44
2023-03-24T08:51:26.058Z,97686.25
2023-03-24T08:52:28.920Z,97689.59
2023-03-24T08:53:31.687Z,97698.03
2023-03-24T08:54:34.563Z,97688.56
2023-03-24T08:55:41.978Z,97686.34
2023-03-24T08:56:44.819Z,97697.97
2023-03-24T08:57:48.819Z,97699.19
2023-03-24T08:58:53.931Z,97692.63
2023-03-24T08:59:57.100Z,97698.34
2023-03-24T09:00:59.992Z,97700.03
2023-03-24T09:02:02.878Z,97699.34
2023-03-24T09:03:07.473Z,97702.28
2023-03-24T09:04:10.527Z,97691.81
2023-03-24T09:05:15.631Z,97695.97
2023-03-24T09:06:18.393Z,97688.75
2023-03-24T09:07:21.985Z,97688.69
2023-03-24T09:08:25.891Z,97693.47
2023-03-24T09:09:29.402Z,97687.75
2023-03-24T09:10:32.222Z,97681.72
2023-03-24T09:11:36.704Z,97688.16
2023-03-24T09:12:42.233Z,97689.63
2023-03-24T09:13:45.122Z,97690.09
2023-03-24T09:14:49.401Z,97694.63
2023-03-24T09:15:54.353Z,97690.09
2023-03-24T09:16:57.775Z,97694.25
2023-03-24T09:18:00.983Z,97691.81
2023-03-24T09:19:03.763Z,97697.34
2023-03-24T09:20:12.043Z,97700.25
2023-03-24T09:21:14.920Z,97676.28
2023-03-24T09:22:17.520Z,97676.94
2023-03-24T09:23:21.747Z,97686.28
2023-03-24T09:24:24.563Z,97678.25
2023-03-24T09:25:27.396Z,97669.50
2023-03-24T09:26:30.449Z,97685.69
2023-03-24T09:27:33.213Z,97689.19
2023-03-24T09:28:36.168Z,97693.13
2023-03-24T09:29:39.233Z,97681.78
2023-03-24T09:30:43.187Z,97684.91
2023-03-24T09:31:45.942Z,97674.16
2023-03-24T09:32:48.803Z,97680.91
2023-03-24T09:33:52.826Z,97679.94
2023-03-24T09:34:56.500Z,97680.44
2023-03-24T09:36:01.752Z,97680.97
2023-03-24T09:37:08.066Z,97672.41
2023-03-24T09:38:12.454Z,97680.91
2023-03-24T09:39:15.687Z,97666.72
2023-03-24T09:40:29.234Z,97662.66
2023-03-24T09:41:34.366Z,97660.81
2023-03-24T09:42:41.640Z,97655.25
2023-03-24T09:43:49.445Z,97662.63
2023-03-24T09:44:57.546Z,97656.97
2023-03-24T09:46:03.424Z,97662.63
2023-03-24T09:47:38.998Z,97654.31
2023-03-24T09:48:51.831Z,97661.72
2023-03-24T09:49:58.675Z,97653.56
2023-03-24T09:51:07.699Z,97643.25
2023-03-24T09:52:18.100Z,97648.25
2023-03-24T09:53:38.078Z,97664.41
2023-03-24T09:54:55.663Z,97643.03
2023-03-24T09:56:02.228Z,97650.44
2023-03-24T09:57:09.850Z,97657.81
2023-03-24T09:58:15.905Z,97644.97
2023-03-24T09:59:30.536Z,97647.25
2023-03-24T10:00:34.684Z,97651.78
2023-03-24T10:01:37.589Z,97654.37
2023-03-24T10:02:40.907Z,97656.13
2023-03-24T10:03:45.628Z,97649.03
2023-03-24T10:04:49.829Z,97641.75
2023-03-24T10:06:02.357Z,97643.41
2023-03-24T10:07:23.662Z,97645.59
2023-03-24T10:08:49.087Z,97651.44
2023-03-24T10:09:59.485Z,97635.19
2023-03-24T10:11:04.696Z,97636.19
2023-03-24T10:12:39.253Z,97654.19
2023-03-24T10:14:22.202Z,97650.16
2023-03-24T10:15:39.467Z,97649.50
2023-03-24T10:17:04.830Z,97631.13
2023-03-24T10:18:28.056Z,97627.41
2023-03-24T10:19:37.065Z,97626.78
2023-03-24T10:20:52.255Z,97626.72
2023-03-24T10:22:26.113Z,97624.13
2023-03-24T10:23:31.493Z,97627.66
2023-03-24T10:24:45.487Z,97624.78
2023-03-24T10:26:09.640Z,97625.22
2023-03-24T10:27:21.770Z,97624.91
2023-03-24T10:28:37.421Z,97622.16
2023-03-24T10:29:41.750Z,97618.06
2023-03-24T10:30:48.170Z,97611.03
2023-03-24T10:32:05.412Z,97616.72
2023-03-24T10:33:13.869Z,97621.88
2023-03-24T10:34:17.682Z,97612.88
2023-03-24T10:35:52.228Z,97610.81
2023-03-24T10:36:58.486Z,97610.81
2023-03-24T10:38:09.503Z,97609.63
2023-03-24T10:39:20.884Z,97606.56
2023-03-24T10:40:33.451Z,97623.50
2023-03-24T10:41:36.912Z,97611.56
2023-03-24T10:42:40.073Z,97620.12
2023-03-24T10:43:44.598Z,97613.22
2023-03-24T10:44:49.995Z,97601.13
2023-03-24T10:45:55.733Z,97615.63
2023-03-24T10:47:04.037Z,97619.41
2023-03-24T10:48:09.831Z,97610.91
2023-03-24T10:49:12.769Z,97611.31
2023-03-24T10:50:15.856Z,97614.31
2023-03-24T10:51:27.505Z,97612.94
2023-03-24T10:52:42.341Z,97615.19
2023-03-24T10:53:48.698Z,97624.75
2023-03-24T10:55:06.551Z,97617.06
2023-03-24T10:56:36.297Z,97608.37
2023-03-24T10:57:42.503Z,97621.72
2023-03-24T10:58:47.667Z,97616.81
2023-03-24T11:00:01.544Z,97618.72
2023-03-24T11:01:21.071Z,97616.75
2023-03-24T11:02:32.799Z,97614.87
2023-03-24T11:03:38.115Z,97606.47
2023-03-24T11:04:57.996Z,97607.47
2023-03-24T11:06:05.335Z,97605.28
2023-03-24T11:07:17.730Z,97606.47
2023-03-24T11:08:28.855Z,97609.50
2023-03-24T11:09:39.952Z,97592.66
2023-03-24T11:10:42.741Z,97595.06
2023-03-24T11:11:46.380Z,97592.78
2023-03-24T11:12:55.379Z,97600.75
2023-03-24T11:14:03.433Z,97591.25
2023-03-24T11:15:23.045Z,97595.03
2023-03-24T11:16:32.912Z,97580.84
2023-03-24T11:17:35.780Z,97580.78
2023-03-24T11:18:38.867Z,97582.28
2023-03-24T11:19:52.690Z,97570.91
2023-03-24T11:21:04.378Z,97580.81
2023-03-24T11:22:09.131Z,97569.75
2023-03-24T11:23:19.411Z,97562.91
2023-03-24T11:24:31.293Z,97568.47
2023-03-24T11:25:37.614Z,97565.66
2023-03-24T11:26:44.291Z,97570.84
2023-03-24T11:27:49.072Z,97572.94
2023-03-24T11:28:56.363Z,97574.56
2023-03-24T11:29:59.216Z,97570.09
2023-03-24T11:31:08.537Z,97573.31
2023-03-24T11:32:33.459Z,97568.31
2023-03-24T11:33:45.735Z,97564.00
2023-03-24T11:34:53.187Z,97567.66
2023-03-24T11:36:05.046Z,97566.97
2023-03-24T11:37:14.546Z,97554.72
2023-03-24T11:38:19.669Z,97558.16
2023-03-24T11:39:25.870Z,97550.25
2023-03-24T11:40:28.721Z,97548.00
2023-03-24T11:41:31.645Z,97546.87
2023-03-24T11:42:34.296Z,97547.41
2023-03-24T11:43:36.990Z,97542.41
2023-03-24T11:44:39.680Z,97542.50
2023-03-24T11:45:44.896Z,97547.34
2023-03-24T11:46:52.697Z,97542.44
2023-03-24T11:47:59.850Z,97539.56
2023-03-24T11:49:04.305Z,97543.94
2023-03-24T11:50:07.769Z,97535.56
2023-03-24T11:51:13.004Z,97529.13
2023-03-24T11:52:27.926Z,97526.00
2023-03-24T11:53:42.825Z,97535.72
2023-03-24T11:54:45.795Z,97533.97
2023-03-24T11:56:03.385Z,97526.75
2023-03-24T11:57:12.593Z,97518.25
2023-03-24T11:58:40.221Z,97518.25
2023-03-24T12:00:19.486Z,97528.16
2023-03-24T12:01:22.371Z,97525.22
2023-03-24T12:02:54.496Z,97530.28
2023-03-24T12:03:57.562Z,97515.78
2023-03-24T12:05:06.755Z,97526.03
2023-03-24T12:06:12.676Z,97504.53
2023-03-24T12:07:53.572Z,97513.72
2023-03-24T12:09:33.176Z,97503.38
2023-03-24T12:10:57.666Z,97514.94
2023-03-24T12:12:25.352Z,97500.31
2023-03-24T12:13:44.237Z,97500.94
2023-03-24T12:15:07.808Z,97495.44
2023-03-24T12:16:39.839Z,97496.31
2023-03-24T12:18:12.067Z,97501.06
2023-03-24T12:19:48.429Z,97491.84
2023-03-24T12:21:19.972Z,97494.72
2023-03-24T12:22:44.139Z,97486.37
2023-03-24T12:23:59.969Z,97489.62
2023-03-24T12:25:23.644Z,97485.06
2023-03-24T12:26:30.989Z,97495.38
2023-03-24T12:28:01.690Z,97483.97
2023-03-24T12:29:24.130Z,97482.75
2023-03-24T12:30:48.116Z,97493.34
2023-03-24T12:32:05.075Z,97488.47
2023-03-24T12:33:32.012Z,97488.88
2023-03-24T12:35:16.761Z,97479.59
2023-03-24T12:36:49.299Z,97465.94
2023-03-24T12:37:54.686Z,97474.72
2023-03-24T12:39:08.453Z,97469.78
2023-03-24T12:40:11.322Z,97473.09
2023-03-24T12:41:33.402Z,97466.12
2023-03-24T12:42:53.581Z,97472.44
2023-03-24T12:44:37.804Z,97464.91
2023-03-24T12:45:43.142Z,97465.00
2023-03-24T12:46:49.875Z,97458.84
2023-03-24T12:47:54.093Z,97460.69
2023-03-24T12:49:26.066Z,97461.72
2023-03-24T12:51:07.129Z,97458.47
2023-03-24T12:52:19.286Z,97455.84
2023-03-24T12:53:42.137Z,97458.72
2023-03-24T12:54:56.124Z,97459.16
2023-03-24T12:56:10.223Z,97450.09
2023-03-24T12:57:16.920Z,97443.62
2023-03-24T12:58:41.887Z,97449.47
2023-03-24T12:59:52.205Z,97451.47
2023-03-24T13:00:59.329Z,97448.41
2023-03-24T13:02:23.940Z,97439.37
2023-03-24T13:03:41.582Z,97452.78
2023-03-24T13:04:48.241Z,97432.09
2023-03-24T13:05:59.797Z,97445.63
2023-03-24T13:07:14.893Z,97429.53
2023-03-24T13:08:29.703Z,97438.91
2023-03-24T13:09:32.501Z,97435.47
2023-03-24T13:10:40.818Z,97436.47
2023-03-24T13:11:53.866Z,97435.16
2023-03-24T13:13:20.957Z,97447.50
2023-03-24T13:14:32.399Z,97429.66
2023-03-24T13:15:40.461Z,97420.19
2023-03-24T13:16:46.723Z,97421.34
2023-03-24T13:17:59.851Z,97410.94
2023-03-24T13:19:03.851Z,97406.19
2023-03-24T13:20:13.700Z,97414.66
2023-03-24T13:21:19.225Z,97412.63
2023-03-24T13:22:25.297Z,97407.59
2023-03-24T13:23:37.856Z,97419.88
2023-03-24T13:24:41.348Z,97426.69
2023-03-24T13:25:56.191Z,97421.38